Time;durP1;ratioP1;P1;durP2;ratioP2;P2;SDS_P1;SDS_P2;PMS_P1;PMS_P2;Temp;Humidity;BMP_temperature;BMP_pressure;BME280_temperature;BME280_humidity;BME280_pressure;Samples;Min_cycle;Max_cycle;Signal;HPM_P1;HPM_P2
2022/07/17 00:00:19;;;;;;;0.90;0.57;;;;;;;13.86;82.15;102409.31;6223865;28;20053;-78
2022/07/17 00:03:20;;;;;;;1.90;1.00;;;;;;;13.78;83.23;102403.47;6223552;28;20072;-78
2022/07/17 00:06:22;;;;;;;1.88;0.88;;;;;;;13.75;83.72;102398.31;6221830;28;20052;-78
2022/07/17 00:09:23;;;;;;;1.95;0.73;;;;;;;13.66;84.10;102399.53;6223400;28;20050;-79
2022/07/17 00:12:24;;;;;;;0.63;0.60;;;;;;;13.61;85.03;102399.72;6223147;28;20058;-79
2022/07/17 00:15:27;;;;;;;1.05;0.65;;;;;;;13.54;86.17;102397.41;6223220;28;20054;-79
2022/07/17 00:18:29;;;;;;;6.25;0.73;;;;;;;13.52;85.89;102396.56;6223762;28;20050;-79
2022/07/17 00:21:30;;;;;;;3.28;0.88;;;;;;;13.45;85.04;102396.81;6223410;28;20046;-79
2022/07/17 00:24:31;;;;;;;1.50;0.73;;;;;;;13.34;85.83;102398.16;6223265;28;20070;-79
2022/07/17 00:27:33;;;;;;;2.40;0.70;;;;;;;13.33;85.41;102404.34;6223522;28;20429;-78
2022/07/17 00:30:36;;;;;;;2.28;0.90;;;;;;;13.24;85.18;102404.72;6209451;28;20057;-79
2022/07/17 00:33:37;;;;;;;1.65;0.60;;;;;;;13.17;85.22;102411.94;6200147;28;20054;-79
2022/07/17 00:36:38;;;;;;;3.60;1.02;;;;;;;13.05;86.03;102409.78;6198578;28;20043;-79
2022/07/17 00:39:40;;;;;;;1.02;0.80;;;;;;;13.02;86.17;102413.38;6199299;28;20050;-80
2022/07/17 00:42:42;;;;;;;4.13;1.08;;;;;;;12.93;86.96;102417.22;6198047;28;20502;-79
2022/07/17 00:45:45;;;;;;;4.70;1.02;;;;;;;12.89;86.39;102418.25;6198230;28;20442;-79
2022/07/17 00:48:46;;;;;;;1.65;0.65;;;;;;;12.84;86.82;102428.09;6198272;28;20057;-79
2022/07/17 00:51:47;;;;;;;2.03;0.75;;;;;;;12.76;87.70;102426.66;6198194;28;20117;-79
2022/07/17 00:54:51;;;;;;;1.92;0.77;;;;;;;12.73;88.33;102424.16;6198099;28;20042;-79
2022/07/17 00:57:55;;;;;;;2.70;0.90;;;;;;;12.70;88.59;102422.47;6197110;28;20051;-79
2022/07/17 01:00:58;;;;;;;2.40;0.80;;;;;;;12.65;89.02;102416.50;6197162;28;20053;-79
2022/07/17 01:03:59;;;;;;;4.20;0.88;;;;;;;12.61;89.30;102410.47;6199299;28;20446;-79
2022/07/17 01:07:02;;;;;;;1.45;1.08;;;;;;;12.61;89.32;102413.09;6198599;28;20414;-79
2022/07/17 01:10:04;;;;;;;1.55;0.63;;;;;;;12.57;89.58;102419.38;6198326;28;20050;-79
2022/07/17 01:13:06;;;;;;;0.82;0.60;;;;;;;12.53;90.26;102415.13;6198026;28;20046;-79
2022/07/17 01:16:09;;;;;;;5.72;0.90;;;;;;;12.50;90.30;102420.53;6198182;28;20046;-79
2022/07/17 01:19:11;;;;;;;0.95;0.60;;;;;;;12.42;90.43;102417.28;6198252;28;20042;-79
2022/07/17 01:22:14;;;;;;;0.40;0.40;;;;;;;12.35;90.51;102413.13;6198282;28;20054;-79
2022/07/17 01:25:17;;;;;;;1.10;0.98;;;;;;;12.31;91.25;102420.31;6198252;28;20516;-79
2022/07/17 01:28:18;;;;;;;1.58;0.82;;;;;;;12.28;91.31;102417.75;6198230;28;20051;-79
2022/07/17 01:31:20;;;;;;;2.67;1.00;;;;;;;12.23;91.30;102424.13;6197983;28;20508;-79
2022/07/17 01:34:21;;;;;;;0.65;0.63;;;;;;;12.17;91.82;102422.50;6198825;28;20054;-79
2022/07/17 01:37:24;;;;;;;4.72;0.60;;;;;;;12.11;91.71;102423.59;6198422;28;20050;-79
2022/07/17 01:40:25;;;;;;;1.98;0.52;;;;;;;12.07;92.58;102431.66;6198233;28;20056;-79
2022/07/17 01:43:26;;;;;;;0.93;0.73;;;;;;;12.05;92.88;102429.06;6198024;28;20052;-79
2022/07/17 01:46:28;;;;;;;1.70;0.82;;;;;;;12.02;92.61;102429.16;6198156;28;20510;-79
2022/07/17 01:49:29;;;;;;;4.88;0.93;;;;;;;12.03;91.90;102430.88;6198139;28;20054;-79
2022/07/17 01:52:36;;;;;;;0.52;0.52;;;;;;;12.01;92.07;102430.06;6197689;28;20055;-78
2022/07/17 01:55:37;;;;;;;3.17;1.00;;;;;;;11.99;91.85;102431.91;6197883;28;20104;-79
2022/07/17 01:58:39;;;;;;;3.45;0.85;;;;;;;11.93;92.96;102427.69;6198047;28;20073;-79
2022/07/17 02:01:40;;;;;;;6.50;0.90;;;;;;;11.90;92.93;102429.56;6198057;28;20050;-79
2022/07/17 02:04:42;;;;;;;5.40;1.25;;;;;;;11.82;93.01;102423.66;6199077;28;20043;-79
2022/07/17 02:07:44;;;;;;;2.97;0.73;;;;;;;11.82;93.13;102421.00;6198009;28;20403;-79
2022/07/17 02:10:47;;;;;;;2.55;0.90;;;;;;;11.84;93.38;102420.06;6200360;28;20050;-79
2022/07/17 02:13:48;;;;;;;1.17;0.90;;;;;;;11.88;92.79;102424.34;6225949;28;20101;-79
2022/07/17 02:16:49;;;;;;;1.25;0.60;;;;;;;11.88;92.53;102426.09;6226586;28;20049;-79
2022/07/17 02:19:51;;;;;;;4.03;1.05;;;;;;;11.80;93.18;102428.09;6225247;28;20042;-79
2022/07/17 02:22:54;;;;;;;1.60;1.50;;;;;;;11.69;93.80;102424.03;6226768;28;20054;-79
2022/07/17 02:25:55;;;;;;;4.63;0.80;;;;;;;11.61;95.12;102418.13;6226439;28;20513;-79
2022/07/17 02:28:56;;;;;;;3.70;0.60;;;;;;;11.60;95.40;102426.09;6226620;28;20053;-79
2022/07/17 02:31:58;;;;;;;2.03;0.60;;;;;;;11.67;95.37;102427.59;6225569;28;20050;-79
2022/07/17 02:34:59;;;;;;;3.70;0.85;;;;;;;11.59;95.49;102421.72;6226180;28;20565;-79
2022/07/17 02:38:02;;;;;;;4.93;1.10;;;;;;;11.54;95.80;102421.00;6226023;28;20061;-79
2022/07/17 02:41:03;;;;;;;3.88;1.02;;;;;;;11.49;96.43;102430.78;6226200;28;20053;-80
2022/07/17 02:44:05;;;;;;;3.50;1.02;;;;;;;11.48;96.53;102431.72;6226029;28;20489;-79
2022/07/17 02:47:06;;;;;;;3.22;0.80;;;;;;;11.48;97.42;102439.59;6226644;28;20049;-79
2022/07/17 02:50:10;;;;;;;1.20;0.75;;;;;;;11.47;96.85;102436.13;6226138;28;20045;-79
2022/07/17 02:53:12;;;;;;;2.67;1.52;;;;;;;11.45;97.06;102435.31;6226289;28;20510;-78
2022/07/17 02:56:14;;;;;;;1.98;0.77;;;;;;;11.39;97.71;102440.75;6226058;28;20516;-78
2022/07/17 02:59:15;;;;;;;2.40;0.63;;;;;;;11.36;97.56;102444.34;6211184;28;20537;-79
2022/07/17 03:02:16;;;;;;;0.95;0.63;;;;;;;11.33;98.36;102454.09;6202558;28;20517;-79
2022/07/17 03:05:18;;;;;;;2.83;1.00;;;;;;;11.36;97.95;102452.25;6201239;28;20706;-79
2022/07/17 03:08:21;;;;;;;3.00;0.88;;;;;;;11.39;97.68;102461.81;6201643;28;20049;-79
2022/07/17 03:11:22;;;;;;;0.85;0.70;;;;;;;11.43;98.62;102466.06;6201137;28;20061;-79
2022/07/17 03:14:23;;;;;;;1.50;0.73;;;;;;;11.44;98.18;102473.06;6201758;28;20504;-79
2022/07/17 03:17:25;;;;;;;1.48;0.98;;;;;;;11.39;98.65;102454.75;6201346;28;20570;-79
2022/07/17 03:20:26;;;;;;;8.18;1.10;;;;;;;11.33;98.80;102460.22;6200204;28;20046;-78
2022/07/17 03:23:29;;;;;;;1.08;0.77;;;;;;;11.31;98.79;102455.88;6200822;28;20053;-79
2022/07/17 03:26:30;;;;;;;8.25;1.50;;;;;;;11.29;99.52;102469.09;6200954;28;20046;-79
2022/07/17 03:29:31;;;;;;;2.78;0.95;;;;;;;11.28;99.93;102475.28;6201534;28;20050;-79
2022/07/17 03:32:33;;;;;;;3.53;0.82;;;;;;;11.24;99.60;102483.31;6201769;28;20517;-78
2022/07/17 03:35:34;;;;;;;8.85;1.33;;;;;;;11.23;100.00;102479.81;6200830;28;20053;-79
2022/07/17 03:38:36;;;;;;;1.58;0.93;;;;;;;11.29;100.00;102471.75;6200930;28;20057;-78
2022/07/17 03:41:38;;;;;;;2.95;0.98;;;;;;;11.37;100.00;102479.41;6201010;28;20053;-79
2022/07/17 03:44:39;;;;;;;1.48;0.85;;;;;;;11.36;100.00;102472.44;6200499;28;20058;-79
2022/07/17 03:47:41;;;;;;;1.02;0.73;;;;;;;11.42;100.00;102472.25;6200785;28;20062;-79
2022/07/17 03:50:42;;;;;;;2.70;1.00;;;;;;;11.51;99.63;102473.75;6202881;28;20489;-79
2022/07/17 03:53:45;;;;;;;3.78;1.15;;;;;;;11.54;99.03;102466.63;6211491;28;20042;-78
2022/07/17 03:56:46;;;;;;;0.70;0.70;;;;;;;11.57;99.70;102465.66;6210751;28;20518;-79
2022/07/17 03:59:47;;;;;;;1.63;0.70;;;;;;;11.57;98.89;102458.63;6212092;28;20395;-79
2022/07/17 04:02:49;;;;;;;1.75;1.10;;;;;;;11.60;98.04;102450.63;6211089;28;20056;-79
2022/07/17 04:05:50;;;;;;;3.08;1.17;;;;;;;11.63;97.43;102442.66;6219628;28;20518;-78
2022/07/17 04:08:53;;;;;;;0.95;0.82;;;;;;;11.60;97.09;102432.22;6223954;28;20413;-79
2022/07/17 04:11:54;;;;;;;2.78;0.80;;;;;;;11.59;96.40;102424.38;6223967;28;20591;-79
2022/07/17 04:14:55;;;;;;;1.60;0.82;;;;;;;11.57;96.86;102419.13;6224798;28;20042;-79
2022/07/17 04:17:57;;;;;;;1.38;0.73;;;;;;;11.61;96.68;102425.16;6213917;28;20046;-78
2022/07/17 04:21:01;;;;;;;1.35;0.85;;;;;;;11.59;96.44;102455.97;6212152;28;20058;-79
2022/07/17 04:24:05;;;;;;;1.85;0.82;;;;;;;11.60;97.67;102462.94;6207549;28;20050;-79
2022/07/17 04:27:07;;;;;;;1.02;0.80;;;;;;;11.64;97.64;102461.94;6213244;28;20049;-79
2022/07/17 04:30:09;;;;;;;1.30;0.90;;;;;;;11.61;97.65;102481.31;6207713;28;20054;-78
2022/07/17 04:33:11;;;;;;;3.08;1.00;;;;;;;11.45;98.75;102497.63;6209913;28;20517;-79
2022/07/17 04:36:12;;;;;;;1.30;0.80;;;;;;;11.50;99.50;102501.00;6210117;28;20049;-79
2022/07/17 04:39:15;;;;;;;2.60;0.85;;;;;;;11.57;98.65;102505.16;6209837;28;20050;-79
2022/07/17 04:42:16;;;;;;;0.77;0.77;;;;;;;11.63;98.51;102499.72;6210070;28;20422;-78
2022/07/17 04:45:18;;;;;;;1.52;1.10;;;;;;;11.66;98.24;102486.44;6210689;28;20042;-78
2022/07/17 04:48:19;;;;;;;1.10;0.93;;;;;;;11.69;99.27;102484.59;6209601;28;20058;-78
2022/07/17 04:51:20;;;;;;;1.42;1.10;;;;;;;11.69;99.19;102483.75;6210005;28;20045;-79
2022/07/17 04:54:23;;;;;;;2.33;1.10;;;;;;;11.70;97.98;102480.19;6209284;28;20137;-79
2022/07/17 04:57:24;;;;;;;2.13;0.88;;;;;;;11.68;97.72;102474.13;6211544;28;20041;-78
2022/07/17 05:00:26;;;;;;;1.35;0.95;;;;;;;11.63;98.25;102471.63;6207845;28;20052;-79
2022/07/17 05:03:28;;;;;;;3.17;0.75;;;;;;;11.63;97.70;102478.66;6266241;22;20658;-71
2022/07/17 05:06:29;;;;;;;2.50;0.98;;;;;;;11.65;97.97;102476.84;6225096;28;20046;-73
2022/07/17 05:09:32;;;;;;;1.10;1.00;;;;;;;11.68;97.53;102466.22;6234563;28;20045;-73
2022/07/17 05:12:33;;;;;;;3.10;1.02;;;;;;;11.73;97.75;102473.97;6246191;28;20049;-71
2022/07/17 05:15:34;;;;;;;2.97;1.10;;;;;;;11.75;97.45;102480.06;6246305;28;20038;-72
2022/07/17 05:18:36;;;;;;;1.25;0.65;;;;;;;11.76;97.81;102487.03;6246111;28;20124;-73
2022/07/17 05:21:37;;;;;;;3.50;1.10;;;;;;;11.80;97.93;102480.75;6246493;28;20132;-73
2022/07/17 05:24:40;;;;;;;1.13;1.02;;;;;;;11.88;97.34;102495.47;6246077;28;20052;-73
2022/07/17 05:27:41;;;;;;;0.80;0.80;;;;;;;11.96;97.71;102495.22;6246287;28;20049;-73
2022/07/17 05:30:42;;;;;;;2.17;0.95;;;;;;;11.99;97.15;102496.91;6245862;28;20046;-73
2022/07/17 05:33:44;;;;;;;2.35;1.27;;;;;;;12.01;96.77;102495.94;6246252;28;20053;-73
2022/07/17 05:36:45;;;;;;;1.85;1.17;;;;;;;12.02;97.27;102494.19;6246250;28;20056;-72
2022/07/17 05:39:48;;;;;;;1.65;0.90;;;;;;;12.01;97.21;102498.59;6246318;28;20060;-73
2022/07/17 05:42:49;;;;;;;1.48;1.13;;;;;;;12.04;97.68;102495.88;6244642;28;20058;-72
2022/07/17 05:45:53;;;;;;;2.03;1.15;;;;;;;12.13;97.77;102492.09;6248018;28;20046;-73
2022/07/17 05:48:55;;;;;;;2.00;1.15;;;;;;;12.24;97.95;102489.09;6249555;28;20053;-73
2022/07/17 05:51:56;;;;;;;1.92;1.27;;;;;;;12.29;97.97;102490.66;6249053;28;20056;-73
2022/07/17 05:54:59;;;;;;;1.98;1.15;;;;;;;12.32;98.83;102501.13;6249133;28;20046;-73
2022/07/17 05:58:00;;;;;;;1.65;1.08;;;;;;;12.36;98.97;102496.59;6248747;28;20057;-72
2022/07/17 06:01:01;;;;;;;1.23;0.80;;;;;;;12.44;99.04;102497.19;6249151;28;20057;-72
2022/07/17 06:04:03;;;;;;;3.65;0.90;;;;;;;12.54;98.90;102489.88;6249605;28;20056;-72
2022/07/17 06:07:04;;;;;;;3.45;1.05;;;;;;;12.63;98.03;102489.56;6250679;28;20049;-72
2022/07/17 06:10:08;;;;;;;1.55;1.08;;;;;;;12.64;97.88;102492.13;6250408;28;20053;-72
2022/07/17 06:13:10;;;;;;;2.45;1.10;;;;;;;12.67;98.05;102499.94;6250580;28;20045;-72
2022/07/17 06:16:11;;;;;;;6.38;1.35;;;;;;;12.70;98.41;102498.97;6250250;28;20053;-72
2022/07/17 06:19:12;;;;;;;2.95;1.00;;;;;;;12.77;98.56;102497.00;6250130;28;20060;-72
2022/07/17 06:22:14;;;;;;;1.67;1.00;;;;;;;12.88;99.09;102511.53;6250087;28;20460;-72
2022/07/17 06:25:16;;;;;;;2.00;1.13;;;;;;;12.91;97.58;102505.28;6249767;28;20045;-72
2022/07/17 06:28:18;;;;;;;5.10;1.55;;;;;;;12.95;98.19;102499.00;6249134;28;20053;-73
2022/07/17 06:31:19;;;;;;;3.08;1.02;;;;;;;13.07;98.03;102495.03;6249797;28;20065;-73
2022/07/17 06:34:20;;;;;;;3.30;1.40;;;;;;;13.12;96.84;102496.59;6249771;28;20054;-73
2022/07/17 06:37:22;;;;;;;1.55;1.00;;;;;;;13.19;96.35;102494.59;6249890;28;20057;-72
2022/07/17 06:40:24;;;;;;;2.00;1.05;;;;;;;13.23;96.08;102505.97;6249835;28;20497;-72
2022/07/17 06:43:26;;;;;;;3.20;1.27;;;;;;;13.26;96.67;102500.53;6249776;28;20053;-72
2022/07/17 06:46:27;;;;;;;4.60;0.95;;;;;;;13.33;95.93;102496.78;6249547;28;20421;-74
2022/07/17 06:49:28;;;;;;;1.38;0.90;;;;;;;13.43;95.48;102503.44;6249759;28;20061;-74
2022/07/17 06:52:30;;;;;;;3.08;1.30;;;;;;;13.48;95.50;102505.91;6249690;28;20060;-74
2022/07/17 06:55:32;;;;;;;1.48;1.00;;;;;;;13.59;94.70;102504.59;6249007;28;20041;-72
2022/07/17 06:58:33;;;;;;;6.35;1.50;;;;;;;13.63;94.68;102500.91;6248975;28;20076;-74
2022/07/17 07:01:35;;;;;;;2.20;0.85;;;;;;;13.71;94.04;102497.97;6248848;28;20049;-71
2022/07/17 07:04:36;;;;;;;4.93;1.20;;;;;;;13.78;93.58;102503.88;6248579;28;20052;-73
2022/07/17 07:07:37;;;;;;;0.80;0.80;;;;;;;13.81;93.44;102503.78;6249344;28;20054;-72
2022/07/17 07:10:40;;;;;;;3.17;1.25;;;;;;;13.84;94.30;102522.13;6248864;28;20049;-72
2022/07/17 07:13:41;;;;;;;1.45;1.00;;;;;;;13.94;93.91;102523.50;6224413;28;20348;-71
2022/07/17 07:16:43;;;;;;;2.20;0.80;;;;;;;14.03;93.92;102527.56;6224411;28;20076;-72
2022/07/17 07:19:44;;;;;;;1.90;0.88;;;;;;;14.10;94.01;102515.84;6224381;28;20049;-72
2022/07/17 07:22:46;;;;;;;2.28;1.10;;;;;;;14.21;92.71;102522.41;6224483;28;20053;-72
2022/07/17 07:25:48;;;;;;;7.53;1.17;;;;;;;14.27;91.34;102534.53;6247930;28;20037;-71
2022/07/17 07:28:50;;;;;;;1.95;0.88;;;;;;;14.26;90.73;102527.53;6248763;28;20048;-71
2022/07/17 07:31:51;;;;;;;1.48;0.93;;;;;;;14.28;90.58;102535.41;6248345;28;20041;-72
2022/07/17 07:34:54;;;;;;;3.72;0.90;;;;;;;14.32;90.93;102529.06;6248460;28;20061;-72
2022/07/17 07:37:55;;;;;;;1.50;0.85;;;;;;;14.45;90.32;102530.28;6248693;28;20046;-72
2022/07/17 07:40:58;;;;;;;4.43;1.10;;;;;;;14.56;89.37;102532.53;6248677;28;20053;-72
2022/07/17 07:44:00;;;;;;;3.50;1.08;;;;;;;14.66;88.76;102533.84;6248475;28;20057;-71
2022/07/17 07:47:01;;;;;;;3.28;0.85;;;;;;;14.77;87.98;102522.84;6248258;28;20168;-72
2022/07/17 07:50:02;;;;;;;2.55;0.70;;;;;;;14.84;87.38;102527.78;6248206;28;20049;-72
2022/07/17 07:53:04;;;;;;;2.10;0.77;;;;;;;14.92;86.72;102536.25;6247983;28;20049;-72
2022/07/17 07:56:07;;;;;;;2.33;0.80;;;;;;;15.04;86.32;102528.72;6248001;28;20052;-71
2022/07/17 07:59:08;;;;;;;1.23;0.60;;;;;;;15.13;83.97;102531.84;6247859;28;20068;-72
2022/07/17 08:02:09;;;;;;;4.43;1.17;;;;;;;15.17;82.49;102535.19;6246722;28;20057;-72
2022/07/17 08:05:11;;;;;;;1.17;0.43;;;;;;;15.25;81.69;102548.09;6247136;28;20432;-72
2022/07/17 08:08:12;;;;;;;2.45;0.40;;;;;;;15.41;80.67;102543.84;6247334;28;20469;-72
2022/07/17 08:11:15;;;;;;;0.60;0.60;;;;;;;15.55;80.00;102545.88;6239880;28;20058;-72
2022/07/17 08:14:17;;;;;;;1.85;1.00;;;;;;;15.63;79.36;102541.94;6231251;28;20071;-72
2022/07/17 08:17:19;;;;;;;1.52;0.52;;;;;;;15.80;77.64;102545.63;6247316;28;20056;-72
2022/07/17 08:20:21;;;;;;;2.13;0.60;;;;;;;15.85;75.35;102540.97;6247134;28;20493;-71
2022/07/17 08:23:22;;;;;;;3.22;0.60;;;;;;;15.92;75.83;102559.19;6246608;28;20049;-67
2022/07/17 08:26:25;;;;;;;4.65;0.65;;;;;;;15.97;75.86;102551.88;6243640;28;20662;-69
2022/07/17 08:29:26;;;;;;;3.70;0.50;;;;;;;16.15;75.60;102554.56;6247198;28;20052;-71
2022/07/17 08:32:28;;;;;;;3.22;0.47;;;;;;;16.37;75.24;102546.44;6246648;28;20041;-69
2022/07/17 08:35:29;;;;;;;1.52;0.52;;;;;;;16.43;72.07;102547.00;6241999;28;20045;-70
2022/07/17 08:38:30;;;;;;;0.80;0.47;;;;;;;16.45;72.99;102542.47;6246382;28;20048;-67
2022/07/17 08:41:37;;;;;;;1.38;0.70;;;;;;;16.58;71.96;102548.06;6246402;28;20052;-68
2022/07/17 08:44:39;;;;;;;2.05;0.50;;;;;;;16.55;71.44;102545.53;6246277;28;20497;-70
2022/07/17 08:47:41;;;;;;;2.38;0.77;;;;;;;16.59;72.18;102548.91;6245319;28;20041;-69
2022/07/17 08:50:43;;;;;;;4.05;0.60;;;;;;;16.60;69.53;102545.31;6246015;28;20064;-69
2022/07/17 08:53:45;;;;;;;1.90;0.77;;;;;;;16.56;70.22;102549.03;6244563;28;20045;-69
2022/07/17 08:56:47;;;;;;;4.68;0.60;;;;;;;16.58;70.60;102553.38;6246531;28;20042;-69
2022/07/17 08:59:49;;;;;;;0.50;0.40;;;;;;;16.69;69.78;102552.81;6239038;28;20158;-70
2022/07/17 09:02:55;;;;;;;0.57;0.43;;;;;;;16.85;69.16;102551.16;6245233;28;20516;-69
2022/07/17 09:05:56;;;;;;;0.80;0.43;;;;;;;16.91;66.63;102555.28;6242192;28;20048;-71
2022/07/17 09:09:05;;;;;;;4.95;0.90;;;;;;;16.92;69.52;102549.03;6246479;28;20053;-70
2022/07/17 09:12:08;;;;;;;2.10;0.65;;;;;;;16.92;66.59;102557.84;6246322;28;20049;-70
2022/07/17 09:15:17;;;;;;;0.77;0.45;;;;;;;16.95;67.82;102551.53;6230145;28;20049;-70
2022/07/17 09:18:18;;;;;;;;;;;;;;;16.99;65.83;102547.78;6246760;28;20164;-73
2022/07/17 09:21:22;;;;;;;2.67;0.75;;;;;;;17.17;66.00;102549.47;6250876;28;19929;-70
2022/07/17 09:24:23;;;;;;;1.65;0.60;;;;;;;17.19;65.77;102544.06;6250692;28;20049;-69
2022/07/17 09:27:33;;;;;;;3.42;0.60;;;;;;;17.26;66.30;102545.50;6249392;28;20048;-71
2022/07/17 09:30:37;;;;;;;3.03;0.82;;;;;;;17.38;66.23;102547.47;6249811;28;20045;-72
2022/07/17 09:33:38;;;;;;;1.58;0.80;;;;;;;17.46;65.44;102547.06;6250830;28;20041;-71
2022/07/17 09:36:40;;;;;;;3.05;0.88;;;;;;;17.53;64.18;102551.09;6248671;28;20045;-69
2022/07/17 09:39:42;;;;;;;1.10;0.50;;;;;;;17.67;63.32;102543.25;6251003;28;20045;-70
2022/07/17 09:42:45;;;;;;;0.57;0.57;;;;;;;17.77;60.65;102553.44;6250786;28;20112;-70
2022/07/17 09:45:47;;;;;;;0.85;0.60;;;;;;;17.68;61.31;102544.13;6251172;28;20485;-68
2022/07/17 09:48:50;;;;;;;1.65;0.60;;;;;;;17.69;62.33;102557.31;6251054;28;20049;-69
2022/07/17 09:51:51;;;;;;;1.27;0.52;;;;;;;17.59;62.84;102540.16;6250758;28;20045;-70
2022/07/17 09:54:54;;;;;;;4.45;1.40;;;;;;;17.60;63.12;102549.00;6250651;28;20072;-70
2022/07/17 09:57:59;;;;;;;2.28;0.68;;;;;;;17.61;63.70;102550.69;6244683;28;20072;-71
2022/07/17 10:01:01;;;;;;;3.72;0.50;;;;;;;17.69;60.95;102532.53;6250452;28;20056;-71
2022/07/17 10:04:03;;;;;;;2.38;0.60;;;;;;;17.69;61.27;102533.38;6250212;28;20050;-71
2022/07/17 10:07:05;;;;;;;2.95;0.60;;;;;;;17.75;62.08;102526.91;6250614;28;20071;-71
2022/07/17 10:10:08;;;;;;;2.40;0.60;;;;;;;17.89;62.41;102537.63;6250318;28;20057;-71
2022/07/17 10:13:12;;;;;;;2.05;0.70;;;;;;;17.95;60.90;102529.31;6250531;28;20084;-71
2022/07/17 10:16:14;;;;;;;1.55;0.77;;;;;;;17.90;61.47;102531.38;6250152;28;20081;-71
2022/07/17 10:19:18;;;;;;;0.50;0.43;;;;;;;17.95;61.99;102529.31;6250081;28;20421;-70
2022/07/17 10:22:19;;;;;;;3.70;0.82;;;;;;;18.06;62.64;102530.53;6250111;28;20783;-70
2022/07/17 10:25:21;;;;;;;1.23;1.10;;;;;;;18.16;60.61;102545.00;6250139;28;20187;-72
2022/07/17 10:28:23;;;;;;;1.13;0.80;;;;;;;18.11;59.77;102539.94;6250169;28;20049;-71
2022/07/17 10:31:26;;;;;;;2.92;0.75;;;;;;;18.19;60.71;102540.38;6249786;28;20140;-70
2022/07/17 10:34:39;;;;;;;0.75;0.60;;;;;;;18.14;60.42;102533.63;6249964;28;20053;-70
2022/07/17 10:37:41;;;;;;;2.17;0.60;;;;;;;18.26;61.01;102524.94;6250103;28;20053;-70
2022/07/17 10:40:43;;;;;;;5.03;0.95;;;;;;;18.43;58.09;102532.78;6249783;28;20524;-70
2022/07/17 10:43:45;;;;;;;1.25;0.80;;;;;;;18.53;59.11;102514.50;6249595;28;20172;-72
2022/07/17 10:46:47;;;;;;;1.73;0.77;;;;;;;18.79;57.66;102525.41;6250038;28;20056;-69
2022/07/17 10:49:48;;;;;;;3.42;0.90;;;;;;;18.73;56.56;102521.31;6249231;28;20061;-71
2022/07/17 10:53:15;;;;;;;2.53;0.80;;;;;;;18.74;56.75;102507.06;6249673;28;20416;-71
2022/07/17 10:56:18;;;;;;;0.60;0.60;;;;;;;18.79;54.87;102520.09;6249659;28;20049;-71
2022/07/17 10:59:20;;;;;;;1.50;0.47;;;;;;;18.91;53.90;102506.91;6247615;28;20061;-70
2022/07/17 11:02:28;;;;;;;0.57;0.50;;;;;;;19.13;52.25;102506.47;6249133;28;20052;-70
2022/07/17 11:05:30;;;;;;;1.60;0.38;;;;;;;19.35;52.70;102503.31;6249571;28;20591;-72
2022/07/17 11:08:31;;;;;;;0.30;0.30;;;;;;;19.55;53.00;102501.22;6250309;28;20049;-73
2022/07/17 11:11:38;;;;;;;4.88;0.52;;;;;;;19.77;53.21;102509.59;6249817;28;20412;-71
2022/07/17 11:14:41;;;;;;;0.82;0.57;;;;;;;19.97;52.35;102510.97;6249440;28;20053;-73
2022/07/17 11:17:47;;;;;;;2.33;0.60;;;;;;;19.94;49.92;102500.47;6249751;28;20049;-71
2022/07/17 11:20:50;;;;;;;2.15;0.40;;;;;;;20.12;50.24;102503.75;6249604;28;20489;-72
2022/07/17 11:23:53;;;;;;;1.98;0.82;;;;;;;20.33;50.05;102496.16;6249826;28;20049;-72
2022/07/17 11:26:55;;;;;;;0.60;0.60;;;;;;;20.58;48.17;102500.75;6245363;28;20049;-72
2022/07/17 11:29:59;;;;;;;1.33;0.50;;;;;;;20.84;48.28;102488.25;6249141;28;20072;-74
2022/07/17 11:33:01;;;;;;;0.80;0.50;;;;;;;21.23;47.78;102489.97;6249254;28;20423;-74
2022/07/17 11:36:02;;;;;;;1.23;0.90;;;;;;;21.37;47.16;102491.72;6248870;28;20519;-73
2022/07/17 11:39:10;;;;;;;1.45;0.63;;;;;;;21.82;47.73;102478.66;6248874;28;20049;-75
2022/07/17 11:42:13;;;;;;;1.13;0.60;;;;;;;22.08;45.42;102476.72;6247779;28;20057;-74
2022/07/17 11:45:16;;;;;;;1.65;0.63;;;;;;;22.28;45.01;102471.59;6248438;28;20046;-72
2022/07/17 11:48:17;;;;;;;0.70;0.50;;;;;;;22.44;44.90;102462.41;6247859;28;20053;-74
2022/07/17 11:51:19;;;;;;;1.13;0.50;;;;;;;22.59;44.23;102461.22;6226620;28;20054;-73
2022/07/17 11:54:20;;;;;;;1.05;0.45;;;;;;;22.96;43.17;102467.28;6231745;28;20065;-70
2022/07/17 11:57:23;;;;;;;0.98;0.50;;;;;;;23.31;43.38;102463.63;6239918;28;20435;-71
2022/07/17 12:00:26;;;;;;;3.58;0.50;;;;;;;23.68;43.11;102458.00;6241061;28;20057;-71
2022/07/17 12:03:27;;;;;;;1.48;0.50;;;;;;;23.94;41.60;102455.88;6243742;28;20052;-72
2022/07/17 12:06:28;;;;;;;0.88;0.50;;;;;;;24.18;40.60;102450.28;6239321;28;20493;-72
2022/07/17 12:09:33;;;;;;;1.67;0.60;;;;;;;23.99;40.30;102453.66;6247862;28;20053;-71
2022/07/17 12:12:35;;;;;;;0.75;0.55;;;;;;;24.19;38.39;102452.81;6247149;28;20068;-71
2022/07/17 12:15:39;;;;;;;0.50;0.38;;;;;;;24.10;36.64;102448.22;6247510;28;20056;-72
2022/07/17 12:18:41;;;;;;;1.25;0.25;;;;;;;24.27;36.95;102450.34;6247210;28;20048;-71
2022/07/17 12:21:54;;;;;;;0.90;0.40;;;;;;;24.49;36.67;102449.41;6247239;28;20497;-71
2022/07/17 12:24:56;;;;;;;0.40;0.40;;;;;;;24.64;33.86;102449.91;6226441;28;20135;-72
2022/07/17 12:27:57;;;;;;;2.97;0.43;;;;;;;24.66;33.44;102445.25;6247290;28;20052;-72
2022/07/17 12:31:00;;;;;;;0.55;0.40;;;;;;;24.75;32.44;102444.47;6247458;28;20493;-72
2022/07/17 12:34:02;;;;;;;0.90;0.40;;;;;;;24.85;33.76;102447.22;6246854;28;20530;-72
2022/07/17 12:37:04;;;;;;;1.35;0.50;;;;;;;25.02;32.42;102451.09;6245182;28;20057;-72
2022/07/17 12:40:07;;;;;;;0.45;0.32;;;;;;;25.04;33.18;102446.47;6246899;28;20045;-72
2022/07/17 12:43:08;;;;;;;0.63;0.40;;;;;;;24.69;33.70;102426.16;6246728;28;20412;-72
2022/07/17 12:46:11;;;;;;;0.40;0.30;;;;;;;24.92;34.89;102428.69;6247142;28;20056;-72
2022/07/17 12:49:13;;;;;;;1.00;0.32;;;;;;;25.14;33.95;102427.69;6247472;28;20049;-72
2022/07/17 12:52:14;;;;;;;3.30;0.60;;;;;;;24.76;33.44;102429.19;6245704;28;20061;-71
2022/07/17 12:55:15;;;;;;;2.90;0.50;;;;;;;24.62;33.56;102422.31;6246895;28;20528;-72
2022/07/17 12:58:17;;;;;;;0.50;0.40;;;;;;;24.40;33.10;102420.63;6246759;28;20052;-72
2022/07/17 13:01:19;;;;;;;2.00;0.90;;;;;;;24.62;33.48;102408.88;6246578;28;20124;-71
2022/07/17 13:04:21;;;;;;;1.10;0.55;;;;;;;24.85;33.40;102419.47;6246892;28;20524;-71
2022/07/17 13:07:22;;;;;;;0.77;0.50;;;;;;;24.76;32.81;102415.75;6246688;28;20134;-71
2022/07/17 13:10:25;;;;;;;4.40;0.60;;;;;;;24.94;33.48;102416.81;6246447;28;20056;-71
2022/07/17 13:13:26;;;;;;;4.88;0.60;;;;;;;24.97;33.07;102407.63;6222011;28;20132;-70
2022/07/17 13:16:29;;;;;;;1.23;0.40;;;;;;;24.85;33.98;102404.19;6222396;28;20053;-71
2022/07/17 13:19:30;;;;;;;2.13;0.50;;;;;;;24.98;33.58;102407.50;6224247;28;20053;-71
2022/07/17 13:22:32;;;;;;;0.22;0.22;;;;;;;25.35;32.96;102401.56;6241707;28;20049;-71
2022/07/17 13:25:33;;;;;;;0.60;0.43;;;;;;;25.04;33.17;102411.47;6246900;28;20056;-71
2022/07/17 13:28:34;;;;;;;0.80;0.45;;;;;;;25.34;33.23;102410.59;6247922;28;20405;-71
2022/07/17 13:31:38;;;;;;;0.68;0.40;;;;;;;25.27;32.58;102398.69;6247390;28;20049;-71
2022/07/17 13:34:39;;;;;;;0.57;0.45;;;;;;;25.20;32.45;102394.84;6241266;28;20053;-71
2022/07/17 13:37:41;;;;;;;1.40;0.70;;;;;;;25.11;31.39;102401.03;6246812;28;20049;-71
2022/07/17 13:40:42;;;;;;;0.75;0.68;;;;;;;25.33;31.33;102392.75;6244819;28;20053;-71
2022/07/17 13:43:43;;;;;;;0.52;0.38;;;;;;;25.67;31.85;102401.31;6245357;28;20416;-71
2022/07/17 13:46:46;;;;;;;1.88;0.35;;;;;;;25.61;32.11;102399.16;6246407;28;20122;-71
2022/07/17 13:49:47;;;;;;;1.60;0.70;;;;;;;24.96;31.91;102412.16;6246695;28;20049;-71
2022/07/17 13:52:49;;;;;;;2.83;0.65;;;;;;;25.20;32.30;102397.53;6246800;28;20053;-71
2022/07/17 13:55:50;;;;;;;1.02;0.70;;;;;;;25.47;33.65;102399.59;6246373;28;20064;-71
2022/07/17 13:58:51;;;;;;;3.28;0.50;;;;;;;25.43;32.28;102388.22;6246307;28;20140;-71
2022/07/17 14:01:54;;;;;;;1.08;0.47;;;;;;;25.35;30.89;102384.56;6242005;28;20053;-71
2022/07/17 14:04:56;;;;;;;0.40;0.40;;;;;;;25.22;31.66;102380.28;6232851;28;20049;-71